Time;durP1;ratioP1;P1;durP2;ratioP2;P2;SDS_P1;SDS_P2;PMS_P1;PMS_P2;Temp;Humidity;BMP_temperature;BMP_pressure;BME280_temperature;BME280_humidity;BME280_pressure;Samples;Min_cycle;Max_cycle;Signal;HPM_P1;HPM_P2
2023/07/06 00:02:43;;;;;;;;;;;;;;;22.68;100.00;101002.22;5052414;28;19912;-69
2023/07/06 00:05:09;;;;;;;;;;;;;;;22.76;100.00;100951.50;5051850;28;19909;-69
2023/07/06 00:07:34;;;;;;;;;;;;;;;22.87;100.00;100940.47;5052497;28;19909;-69
2023/07/06 00:10:00;;;;;;;;;;;;;;;22.56;100.00;101040.03;5050644;28;20263;-66
2023/07/06 00:15:28;;;;;;;;;;;;;;;22.47;100.00;101257.53;5054612;28;19963;-69
2023/07/06 00:17:53;;;;;;;;;;;;;;;22.23;100.00;101413.50;5056119;28;20351;-69
2023/07/06 00:20:18;;;;;;;;;;;;;;;22.60;100.00;101403.78;5056047;28;19909;-69
2023/07/06 00:22:44;;;;;;;;;;;;;;;22.41;100.00;101435.84;5056730;28;19904;-66
2023/07/06 00:25:09;;;;;;;;;;;;;;;22.15;100.00;101534.84;5056070;28;20351;-69
2023/07/06 00:27:34;;;;;;;;;;;;;;;22.24;100.00;101624.28;5055697;28;19909;-68
2023/07/06 00:30:21;;;;;;;;;;;;;;;21.94;100.00;101657.72;5055868;28;19913;-68
2023/07/06 00:32:47;;;;;;;;;;;;;;;22.02;100.00;101720.38;5056248;28;19963;-68
2023/07/06 00:38:17;;;;;;;;;;;;;;;21.77;100.00;101516.94;5055988;28;19912;-68
2023/07/06 00:40:44;;;;;;;;;;;;;;;21.34;100.00;101507.81;5055841;28;20413;-69
2023/07/06 00:43:15;;;;;;;;;;;;;;;21.34;100.00;101506.09;5055743;28;19938;-68
2023/07/06 00:45:42;;;;;;;;;;;;;;;21.19;100.00;101430.94;5056093;28;19916;-68
2023/07/06 00:51:27;;;;;;;;;;;;;;;21.01;100.00;101448.19;5043314;28;19970;-69
2023/07/06 00:53:57;;;;;;;;;;;;;;;21.19;100.00;101348.16;5055683;28;20427;-68
2023/07/06 00:56:25;;;;;;;;;;;;;;;21.34;100.00;101239.53;5055805;28;20010;-69
2023/07/06 00:58:53;;;;;;;;;;;;;;;21.54;100.00;101153.91;5055439;28;19908;-68
2023/07/06 01:01:19;;;;;;;;;;;;;;;21.34;100.00;101054.97;5053800;28;19916;-69
2023/07/06 01:03:47;;;;;;;;;;;;;;;21.83;100.00;101043.53;5054237;28;20415;-69
2023/07/06 01:06:17;;;;;;;;;;;;;;;21.69;100.00;101078.91;5055527;28;19916;-69
2023/07/06 01:08:43;;;;;;;;;;;;;;;21.90;100.00;101065.59;5055280;28;20050;-69
2023/07/06 01:14:13;;;;;;;;;;;;;;;21.80;100.00;101054.06;5055195;28;20286;-68
2023/07/06 01:19:56;;;;;;;;;;;;;;;21.64;100.00;101097.28;5055169;28;19951;-68
2023/07/06 01:22:27;;;;;;;;;;;;;;;21.44;100.00;101082.84;5055499;28;19998;-68
2023/07/06 01:25:04;;;;;;;;;;;;;;;20.69;100.00;101056.72;5055064;28;19916;-68
2023/07/06 01:27:45;;;;;;;;;;;;;;;20.72;100.00;101022.09;5052742;28;19909;-69
2023/07/06 01:30:29;;;;;;;;;;;;;;;20.97;100.00;101003.53;5055085;28;20366;-69
2023/07/06 01:33:03;;;;;;;;;;;;;;;21.05;100.00;100988.47;5054788;28;19974;-69
2023/07/06 01:35:39;;;;;;;;;;;;;;;20.66;100.00;100968.16;5055071;28;19908;-69
2023/07/06 01:41:07;;;;;;;;;;;;;;;20.98;100.00;100884.47;5055273;28;20342;-68
2023/07/06 01:43:33;;;;;;;;;;;;;;;20.74;100.00;100883.25;5036133;28;19945;-68
2023/07/06 01:45:58;;;;;;;;;;;;;;;20.71;100.00;100867.94;5054861;28;19915;-68
2023/07/06 01:48:24;;;;;;;;;;;;;;;20.85;100.00;100815.44;5062321;28;19916;-68
2023/07/06 01:51:11;;;;;;;;;;;;;;;20.92;100.00;100771.06;5055351;28;20053;-69
2023/07/06 01:56:46;;;;;;;;;;;;;;;20.94;100.00;100616.66;5054672;28;20011;-68
2023/07/06 01:59:14;;;;;;;;;;;;;;;20.74;100.00;100617.84;5054542;28;19905;-68
2023/07/06 02:01:41;;;;;;;;;;;;;;;21.07;100.00;100627.13;5053280;28;19909;-68
2023/07/06 02:04:07;;;;;;;;;;;;;;;20.94;100.00;100629.59;5054062;28;19913;-68
2023/07/06 02:06:33;;;;;;;;;;;;;;;20.52;100.00;100645.06;5053820;28;19908;-68
2023/07/06 02:08:58;;;;;;;;;;;;;;;20.40;100.00;100646.59;5052418;28;19909;-67
2023/07/06 02:11:24;;;;;;;;;;;;;;;20.86;100.00;100651.66;5053696;28;19942;-69
2023/07/06 02:16:52;;;;;;;;;;;;;;;20.66;100.00;100650.22;5054067;28;19927;-68
2023/07/06 02:19:20;;;;;;;;;;;;;;;20.51;100.00;100661.47;5054315;28;20363;-68
2023/07/06 02:21:46;;;;;;;;;;;;;;;20.63;100.00;100663.34;5054205;28;19909;-68
2023/07/06 02:24:11;;;;;;;;;;;;;;;20.66;100.00;100656.25;5054005;28;19909;-71
2023/07/06 02:29:41;;;;;;;;;;;;;;;20.42;100.00;100662.81;5053886;28;20322;-69
2023/07/06 02:35:12;;;;;;;;;;;;;;;20.47;100.00;100666.00;5053755;28;20429;-68
2023/07/06 02:40:40;;;;;;;;;;;;;;;20.73;100.00;100677.41;5053646;28;19912;-70
2023/07/06 02:46:08;;;;;;;;;;;;;;;20.92;100.00;100661.66;5053530;28;20287;-69
2023/07/06 02:48:34;;;;;;;;;;;;;;;20.73;100.00;100662.72;5053251;28;19908;-69
2023/07/06 02:50:59;;;;;;;;;;;;;;;20.41;100.00;100662.91;5053142;28;19913;-69
2023/07/06 02:53:24;;;;;;;;;;;;;;;20.74;100.00;100663.53;5053156;28;19920;-69
2023/07/06 02:55:51;;;;;;;;;;;;;;;20.71;100.00;100658.56;5053404;28;20422;-69
2023/07/06 03:04:42;;;;;;;;;;;;;;;20.70;100.00;100421.69;5110302;28;20067;-68
2023/07/06 03:07:07;;;;;;;;;;;;;;;20.79;100.00;100452.16;5110191;28;19925;-69
2023/07/06 03:12:41;;;;;;;;;;;;;;;20.89;100.00;100481.69;5110457;28;20057;-68
2023/07/06 03:15:10;;;;;;;;;;;;;;;21.02;100.00;100494.69;5110242;28;20301;-69
2023/07/06 03:17:36;;;;;;;;;;;;;;;21.00;100.00;100507.69;5108620;28;19919;-69
2023/07/06 03:20:03;;;;;;;;;;;;;;;21.06;100.00;100515.09;5109864;28;19912;-68
2023/07/06 03:25:33;;;;;;;;;;;;;;;20.72;100.00;100536.97;5109918;28;19916;-69
2023/07/06 03:31:14;;;;;;;;;;;;;;;20.85;100.00;100552.59;5109878;28;20016;-69
2023/07/06 03:33:41;;;;;;;;;;;;;;;20.80;100.00;100557.19;5108304;28;19916;-70
2023/07/06 03:36:06;;;;;;;;;;;;;;;21.00;100.00;100564.56;5109925;28;19912;-70
2023/07/06 03:38:35;;;;;;;;;;;;;;;21.13;100.00;100565.53;5109582;28;19912;-70
2023/07/06 03:41:03;;;;;;;;;;;;;;;21.12;100.00;100566.44;5109912;28;19912;-68
2023/07/06 03:46:33;;;;;;;;;;;;;;;21.56;100.00;100569.66;5109555;28;19931;-69
2023/07/06 03:49:03;;;;;;;;;;;;;;;21.25;100.00;100575.06;5109749;28;19916;-69
2023/07/06 03:51:29;;;;;;;;;;;;;;;21.44;100.00;100580.78;5108131;28;19912;-69
2023/07/06 03:53:55;;;;;;;;;;;;;;;21.67;100.00;100566.34;5109238;28;19912;-68
2023/07/06 03:59:23;;;;;;;;;;;;;;;22.40;100.00;100565.00;5109410;28;19927;-69
2023/07/06 04:01:49;;;;;;;;;;;;;;;22.66;100.00;100568.44;5108580;28;19911;-68
2023/07/06 04:07:19;;;;;;;;;;;;;;;22.95;100.00;100562.91;5109158;28;19930;-68
2023/07/06 04:09:44;;;;;;;;;;;;;;;23.10;100.00;100587.78;5109153;28;19912;-69
2023/07/06 04:12:13;;;;;;;;;;;;;;;23.29;100.00;100974.06;5099162;28;19918;-69
2023/07/06 04:14:39;;;;;;;;;;;;;;;23.27;100.00;100988.91;5095539;28;19915;-70
2023/07/06 04:20:18;;;;;;;;;;;;;;;23.67;100.00;101034.75;5095342;28;19942;-71
2023/07/06 04:22:43;;;;;;;;;;;;;;;23.62;100.00;101073.19;5095405;28;19942;-71
2023/07/06 04:25:09;;;;;;;;;;;;;;;23.73;100.00;101088.91;5095554;28;19912;-70
2023/07/06 04:27:34;;;;;;;;;;;;;;;23.86;100.00;101105.38;5095157;28;19959;-70
2023/07/06 04:33:03;;;;;;;;;;;;;;;24.07;100.00;101087.56;5095108;28;19930;-70
2023/07/06 04:38:33;;;;;;;;;;;;;;;24.32;100.00;101129.22;5095111;28;19961;-71
2023/07/06 04:44:01;;;;;;;;;;;;;;;24.72;100.00;101179.41;5094930;28;19915;-71
2023/07/06 04:49:29;;;;;;;;;;;;;;;24.99;100.00;101010.97;5095068;28;19919;-71
2023/07/06 04:51:54;;;;;;;;;;;;;;;25.18;100.00;101104.19;5092893;28;19912;-72
2023/07/06 04:54:19;;;;;;;;;;;;;;;25.28;100.00;101136.47;5095430;28;19927;-72
2023/07/06 04:56:45;;;;;;;;;;;;;;;25.31;100.00;101277.75;5093240;28;19919;-71
2023/07/06 04:59:10;;;;;;;;;;;;;;;25.26;100.00;101380.53;5093381;28;20329;-71
2023/07/06 05:04:44;;;;;;;;;;;;;;;25.42;100.00;101765.03;5094843;28;20345;-74
2023/07/06 05:07:13;;;;;;;;;;;;;;;25.67;100.00;101936.41;5094860;28;19951;-72
2023/07/06 05:09:40;;;;;;;;;;;;;;;25.59;100.00;102074.94;5094786;28;19940;-72
2023/07/06 05:12:06;;;;;;;;;;;;;;;25.82;100.00;102231.84;5127610;27;20258;-72
2023/07/06 05:14:34;;;;;;;;;;;;;;;25.61;100.00;102301.66;5093008;28;19912;-72
2023/07/06 05:17:00;;;;;;;;;;;;;;;26.01;100.00;102507.22;5094060;28;19916;-72
2023/07/06 05:19:27;;;;;;;;;;;;;;;25.94;100.00;103971.03;5094395;28;20316;-72
2023/07/06 05:21:54;;;;;;;;;;;;;;;26.25;100.00;103823.94;5094174;28;19912;-71
2023/07/06 05:24:20;;;;;;;;;;;;;;;26.21;100.00;103463.91;5091695;28;19919;-72
2023/07/06 05:26:45;;;;;;;;;;;;;;;26.65;100.00;102285.34;5094164;28;19912;-72
2023/07/06 05:29:10;;;;;;;;;;;;;;;26.34;100.00;102050.56;5094134;28;20255;-71
2023/07/06 05:31:36;;;;;;;;;;;;;;;26.72;100.00;102278.84;5093867;28;19951;-73
2023/07/06 05:37:04;;;;;;;;;;;;;;;26.78;100.00;102187.09;5093922;28;19962;-72
2023/07/06 05:39:29;;;;;;;;;;;;;;;27.08;100.00;102132.13;5093805;28;19916;-72
2023/07/06 05:41:54;;;;;;;;;;;;;;;27.03;100.00;102074.13;5092607;28;19912;-72
2023/07/06 05:44:20;;;;;;;;;;;;;;;27.34;100.00;102032.06;5093684;28;20350;-72
2023/07/06 05:46:45;;;;;;;;;;;;;;;27.39;100.00;101969.88;5093965;28;19912;-73
2023/07/06 05:49:10;;;;;;;;;;;;;;;27.62;100.00;101921.25;5093831;28;19912;-73
2023/07/06 05:51:36;;;;;;;;;;;;;;;27.62;100.00;101863.75;5093199;28;19995;-72
2023/07/06 05:54:01;;;;;;;;;;;;;;;27.47;100.00;101831.66;5091883;28;19912;-72
2023/07/06 05:56:28;;;;;;;;;;;;;;;27.62;100.00;101814.91;5093539;28;19908;-72
2023/07/06 06:01:57;;;;;;;;;;;;;;;27.64;100.00;101734.59;5091350;28;19955;-70
2023/07/06 06:07:25;;;;;;;;;;;;;;;28.17;100.00;101645.22;5093599;28;19962;-70
2023/07/06 06:12:53;;;;;;;;;;;;;;;28.30;100.00;101590.19;5093258;28;19931;-72
2023/07/06 06:15:18;;;;;;;;;;;;;;;28.46;100.00;101572.34;5093066;28;20370;-72
2023/07/06 06:17:44;;;;;;;;;;;;;;;28.13;100.00;101553.97;5092928;28;20006;-73
2023/07/06 06:20:10;;;;;;;;;;;;;;;28.49;100.00;101532.00;5091680;28;19962;-72
2023/07/06 06:22:35;;;;;;;;;;;;;;;28.55;100.00;101524.53;5093290;28;19970;-72
2023/07/06 06:28:04;;;;;;;;;;;;;;;28.72;100.00;101504.88;5092986;28;19915;-71
2023/07/06 06:33:32;;;;;;;;;;;;;;;29.15;100.00;101460.38;5092937;28;20121;-72
2023/07/06 06:35:58;;;;;;;;;;;;;;;29.05;100.00;101400.81;5092473;28;20016;-71
2023/07/06 06:38:24;;;;;;;;;;;;;;;28.63;100.00;101378.13;5092887;28;20342;-73
2023/07/06 06:40:49;;;;;;;;;;;;;;;29.30;100.00;101381.28;5093068;28;20053;-73
2023/07/06 06:43:14;;;;;;;;;;;;;;;29.36;100.00;101365.03;5091726;28;19927;-72
2023/07/06 06:45:40;;;;;;;;;;;;;;;29.18;100.00;101295.00;5092278;28;19966;-71
2023/07/06 06:48:05;;;;;;;;;;;;;;;29.79;100.00;101278.31;5092657;28;19912;-72
2023/07/06 06:50:31;;;;;;;;;;;;;;;29.60;100.00;101228.38;5091702;28;19912;-72
2023/07/06 06:52:56;;;;;;;;;;;;;;;29.78;100.00;101205.81;5092850;28;19920;-72
2023/07/06 06:58:25;;;;;;;;;;;;;;;29.65;100.00;101126.53;5092557;28;20290;-71
2023/07/06 07:01:01;;;;;;;;;;;;;;;29.32;100.00;101082.31;5124719;28;20293;-71
2023/07/06 07:06:30;;;;;;;;;;;;;;;29.27;100.00;101034.75;5092468;28;19926;-71
2023/07/06 07:08:57;;;;;;;;;;;;;;;30.91;100.00;101060.56;5092486;28;20018;-72
2023/07/06 07:11:23;;;;;;;;;;;;;;;30.63;100.00;100958.09;5092601;28;19918;-72
2023/07/06 07:13:49;;;;;;;;;;;;;;;30.31;100.00;100949.81;5092675;28;19916;-72
2023/07/06 07:19:19;;;;;;;;;;;;;;;30.20;100.00;100841.53;5092345;28;19922;-71
2023/07/06 07:21:44;;;;;;;;;;;;;;;30.19;100.00;100776.91;5124860;28;19912;-71
2023/07/06 07:24:11;;;;;;;;;;;;;;;30.94;100.00;100723.91;5092348;28;20354;-71
2023/07/06 07:26:37;;;;;;;;;;;;;;;30.33;100.00;100616.28;5092420;28;20355;-71
2023/07/06 07:32:05;;;;;;;;;;;;;;;31.30;100.00;100457.22;5092254;28;20352;-72
2023/07/06 07:34:32;;;;;;;;;;;;;;;30.65;100.00;100404.56;5124552;28;19912;-72
2023/07/06 07:36:58;;;;;;;;;;;;;;;30.67;100.00;100370.25;5091023;28;19920;-72
2023/07/06 07:39:23;;;;;;;;;;;;;;;30.85;100.00;100320.22;5091961;28;19912;-71
2023/07/06 07:41:48;;;;;;;;;;;;;;;30.85;100.00;100267.69;5125010;28;19923;-72
2023/07/06 07:44:15;;;;;;;;;;;;;;;31.17;100.00;100247.44;5092131;28;19969;-72
2023/07/06 07:46:40;;;;;;;;;;;;;;;31.79;100.00;100231.78;5093135;28;19919;-72
2023/07/06 07:49:07;;;;;;;;;;;;;;;31.11;100.00;100194.72;5096267;28;19912;-74
2023/07/06 07:51:32;;;;;;;;;;;;;;;31.79;100.00;100187.88;5096044;28;19912;-73
2023/07/06 07:57:00;;;;;;;;;;;;;;;31.90;100.00;100165.59;5095818;28;19915;-70
2023/07/06 07:59:26;;;;;;;;;;;;;;;31.42;100.00;100148.28;5095554;28;19912;-71
2023/07/06 08:01:52;;;;;;;;;;;;;;;31.67;100.00;100141.94;5095535;28;19916;-71
2023/07/06 08:07:21;;;;;;;;;;;;;;;32.11;100.00;100169.25;5095581;28;19946;-71
2023/07/06 08:12:49;;;;;;;;;;;;;;;32.45;100.00;100186.47;5095548;28;20293;-71
2023/07/06 08:15:15;;;;;;;;;;;;;;;32.41;100.00;100181.53;5128036;27;19999;-71
2023/07/06 08:17:41;;;;;;;;;;;;;;;32.52;100.00;100192.66;5095767;28;19962;-72
2023/07/06 08:20:11;;;;;;;;;;;;;;;32.64;100.00;100194.69;5095803;28;19977;-72
2023/07/06 08:22:37;;;;;;;;;;;;;;;32.85;100.00;100205.34;5096482;28;19969;-71
2023/07/06 08:28:05;;;;;;;;;;;;;;;32.25;100.00;100201.88;5095311;28;19915;-71
2023/07/06 08:33:37;;;;;;;;;;;;;;;32.28;100.00;100191.84;5095109;28;20009;-71
2023/07/06 08:36:09;;;;;;;;;;;;;;;32.51;100.00;100193.66;5095159;28;19918;-71
2023/07/06 08:38:37;;;;;;;;;;;;;;;32.80;100.00;100198.97;5095038;28;19912;-72
2023/07/06 08:41:03;;;;;;;;;;;;;;;31.98;100.00;100178.72;5094432;28;20381;-71
2023/07/06 08:43:30;;;;;;;;;;;;;;;32.10;100.00;100174.69;5094861;28;20148;-71
2023/07/06 08:46:00;;;;;;;;;;;;;;;32.87;100.00;100177.00;5076699;28;19916;-71
2023/07/06 08:48:26;;;;;;;;;;;;;;;33.45;100.00;100181.44;5094978;28;19955;-71
2023/07/06 08:53:56;;;;;;;;;;;;;;;32.58;100.00;100169.06;5094800;28;19915;-71
2023/07/06 08:56:23;;;;;;;;;;;;;;;33.33;100.00;100172.34;5094042;28;19919;-71
2023/07/06 08:58:49;;;;;;;;;;;;;;;32.62;100.00;100167.72;5094905;28;19916;-70
2023/07/06 09:01:22;;;;;;;;;;;;;;;33.16;100.00;100170.91;5094255;28;19953;-71
2023/07/06 09:06:54;;;;;;;;;;;;;;;32.88;100.00;100157.53;5094545;28;19915;-70
2023/07/06 09:09:20;;;;;;;;;;;;;;;33.41;100.00;100169.63;5094357;28;20032;-71
2023/07/06 09:11:47;;;;;;;;;;;;;;;33.76;100.00;100160.06;5094321;28;20366;-72
2023/07/06 09:14:13;;;;;;;;;;;;;;;33.99;100.00;100164.19;5094596;28;19912;-73
2023/07/06 09:19:41;;;;;;;;;;;;;;;33.66;100.00;100151.66;5094375;28;19935;-72
2023/07/06 09:25:13;;;;;;;;;;;;;;;33.32;100.00;100141.69;5094198;28;19919;-72
2023/07/06 09:27:39;;;;;;;;;;;;;;;33.77;100.00;100138.81;5093960;28;19923;-72
2023/07/06 09:30:06;;;;;;;;;;;;;;;33.04;100.00;100144.19;5110176;28;19912;-72
2023/07/06 09:32:32;;;;;;;;;;;;;;;33.93;100.00;100124.53;5094095;28;19916;-71
2023/07/06 09:35:06;;;;;;;;;;;;;;;34.05;100.00;100102.72;5093945;28;19912;-72
2023/07/06 09:40:36;;;;;;;;;;;;;;;33.77;100.00;100122.97;5094083;28;20377;-70
2023/07/06 09:46:07;;;;;;;;;;;;;;;33.76;100.00;100121.31;5094054;28;19969;-71
2023/07/06 09:48:37;;;;;;;;;;;;;;;33.86;100.00;100115.72;5093924;28;20002;-74
2023/07/06 09:51:06;;;;;;;;;;;;;;;33.45;100.00;100112.03;5093649;28;19919;-71
2023/07/06 09:53:39;;;;;;;;;;;;;;;33.69;100.00;100115.16;5108980;28;19912;-71
2023/07/06 09:59:09;;;;;;;;;;;;;;;33.99;100.00;100111.41;5093845;28;20408;-71
2023/07/06 10:04:49;;;;;;;;;;;;;;;33.79;100.00;100101.66;5091962;28;19931;-71
2023/07/06 10:07:23;;;;;;;;;;;;;;;34.46;100.00;100115.22;5109250;28;19998;-71
2023/07/06 10:09:49;;;;;;;;;;;;;;;34.22;100.00;100113.00;5092970;28;19920;-73
2023/07/06 10:15:25;;;;;;;;;;;;;;;34.04;100.00;100095.00;5093299;28;19958;-73
2023/07/06 10:17:56;;;;;;;;;;;;;;;33.83;100.00;100089.72;5091846;28;19962;-73
2023/07/06 10:20:27;;;;;;;;;;;;;;;34.55;100.00;100091.13;5093018;28;20445;-73
2023/07/06 10:26:33;;;;;;;;;;;;;;;34.36;100.00;100077.75;5093109;28;19981;-73
2023/07/06 10:32:24;;;;;;;;;;;;;;;34.11;100.00;100084.50;5031035;28;19976;-72
2023/07/06 10:37:53;;;;;;;;;;;;;;;33.97;100.00;100068.50;5092812;28;19914;-72
2023/07/06 10:43:23;;;;;;;;;;;;;;;34.18;100.00;100067.69;5092707;28;19915;-71
2023/07/06 10:45:51;;;;;;;;;;;;;;;35.09;100.00;100087.72;5092362;28;19912;-71
2023/07/06 10:48:30;;;;;;;;;;;;;;;34.99;100.00;100082.81;5092840;28;19918;-73
2023/07/06 10:51:14;;;;;;;;;;;;;;;34.83;100.00;100073.38;5108351;28;19912;-72
2023/07/06 10:53:41;;;;;;;;;;;;;;;34.26;100.00;100079.91;5108322;28;19912;-73
2023/07/06 10:56:06;;;;;;;;;;;;;;;34.38;100.00;100075.72;5074253;28;20294;-71
2023/07/06 10:58:36;;;;;;;;;;;;;;;34.84;100.00;100085.56;5092190;28;19912;-71
2023/07/06 11:01:09;;;;;;;;;;;;;;;34.57;100.00;100064.47;5091274;28;20374;-71
2023/07/06 11:03:34;;;;;;;;;;;;;;;34.17;100.00;100065.25;5074241;28;20011;-71
2023/07/06 11:06:06;;;;;;;;;;;;;;;34.66;100.00;100071.25;5092471;28;19995;-71
2023/07/06 11:08:51;;;;;;;;;;;;;;;34.35;100.00;100063.72;5074129;28;19912;-71
2023/07/06 11:11:20;;;;;;;;;;;;;;;34.76;100.00;100071.72;5092709;28;19912;-72
2023/07/06 11:13:50;;;;;;;;;;;;;;;34.36;100.00;100065.38;5090999;28;19955;-72
2023/07/06 11:19:23;;;;;;;;;;;;;;;33.96;100.00;100056.31;5092275;28;19915;-71
2023/07/06 11:24:53;;;;;;;;;;;;;;;34.67;100.00;100064.94;5096499;28;19914;-73
2023/07/06 11:27:24;;;;;;;;;;;;;;;34.93;100.00;100055.31;5077743;28;20279;-70
2023/07/06 11:29:51;;;;;;;;;;;;;;;35.61;100.00;100064.09;5096283;28;20025;-73
2023/07/06 11:32:28;;;;;;;;;;;;;;;34.59;100.00;100046.59;5077891;28;20370;-73
2023/07/06 11:34:59;;;;;;;;;;;;;;;34.90;100.00;100047.75;5111461;28;19961;-71
2023/07/06 11:37:32;;;;;;;;;;;;;;;34.31;100.00;100038.69;5096791;28;19912;-71
2023/07/06 11:40:17;;;;;;;;;;;;;;;34.36;100.00;100022.28;5096093;28;20332;-71
2023/07/06 11:45:48;;;;;;;;;;;;;;;34.77;100.00;100031.03;5095973;28;19914;-71
2023/07/06 11:48:13;;;;;;;;;;;;;;;34.78;100.00;100030.03;5096175;28;19918;-72
2023/07/06 11:50:39;;;;;;;;;;;;;;;35.08;100.00;100020.81;5096335;28;19912;-71
2023/07/06 11:53:10;;;;;;;;;;;;;;;35.07;100.00;100027.13;5095891;28;19912;-71
2023/07/06 11:58:54;;;;;;;;;;;;;;;34.30;100.00;100013.31;5095720;28;19973;-71
2023/07/06 12:01:40;;;;;;;;;;;;;;;34.76;100.00;100029.41;5077211;28;20106;-73
2023/07/06 12:04:17;;;;;;;;;;;;;;;34.11;100.00;100000.81;5095527;28;19963;-73
2023/07/06 12:06:45;;;;;;;;;;;;;;;33.89;100.00;100002.63;5095687;28;19927;-73
2023/07/06 12:09:15;;;;;;;;;;;;;;;33.88;100.00;100008.94;5095274;28;19965;-73
2023/07/06 12:14:44;;;;;;;;;;;;;;;34.42;100.00;100009.13;5095550;28;19934;-73
2023/07/06 12:20:12;;;;;;;;;;;;;;;35.29;100.00;100015.38;5095328;28;19919;-73
2023/07/06 12:22:49;;;;;;;;;;;;;;;35.34;100.00;100017.41;5095408;28;19912;-71
2023/07/06 12:28:18;;;;;;;;;;;;;;;34.33;100.00;99993.63;5095313;28;19919;-71
2023/07/06 12:33:46;;;;;;;;;;;;;;;35.14;100.00;100016.56;5094676;28;19915;-71
2023/07/06 12:39:14;;;;;;;;;;;;;;;34.52;100.00;100019.34;5095811;28;20015;-72
2023/07/06 12:41:40;;;;;;;;;;;;;;;34.49;100.00;100012.63;5077332;28;19990;-72
2023/07/06 12:44:10;;;;;;;;;;;;;;;35.17;100.00;100026.72;5096585;28;19998;-72
2023/07/06 12:46:35;;;;;;;;;;;;;;;34.42;100.00;100016.22;5076631;28;20275;-72
2023/07/06 12:52:04;;;;;;;;;;;;;;;33.52;100.00;100010.88;5094805;28;20293;-72
2023/07/06 12:54:29;;;;;;;;;;;;;;;33.27;100.00;100001.69;5110151;28;19912;-72
2023/07/06 12:56:59;;;;;;;;;;;;;;;33.33;100.00;100006.22;5110828;28;19916;-71
2023/07/06 12:59:31;;;;;;;;;;;;;;;33.72;100.00;100008.41;5094635;28;19908;-71
2023/07/06 13:05:14;;;;;;;;;;;;;;;33.36;100.00;100005.81;5094163;28;19953;-71
2023/07/06 13:07:39;;;;;;;;;;;;;;;33.54;100.00;100014.13;5094249;28;19920;-72
2023/07/06 13:10:06;;;;;;;;;;;;;;;34.29;100.00;100011.66;5094449;28;19962;-72
2023/07/06 13:12:33;;;;;;;;;;;;;;;34.12;100.00;99989.22;5094378;28;19912;-71
2023/07/06 13:15:04;;;;;;;;;;;;;;;34.46;100.00;99997.16;5094309;28;19912;-72
2023/07/06 13:17:30;;;;;;;;;;;;;;;34.70;100.00;100001.97;5094706;28;20340;-72
2023/07/06 13:19:56;;;;;;;;;;;;;;;34.51;100.00;99999.22;5094522;28;19912;-72
2023/07/06 13:25:24;;;;;;;;;;;;;;;34.51;100.00;99967.50;5094408;28;19915;-72
2023/07/06 13:27:50;;;;;;;;;;;;;;;34.77;100.00;99971.06;5093773;28;20273;-71
2023/07/06 13:30:21;;;;;;;;;;;;;;;33.72;100.00;99966.16;5094293;28;19977;-72
2023/07/06 13:32:47;;;;;;;;;;;;;;;33.88;100.00;99979.91;5094095;28;20006;-72
2023/07/06 13:38:15;;;;;;;;;;;;;;;33.85;100.00;99976.84;5093887;28;20465;-72
2023/07/06 13:40:41;;;;;;;;;;;;;;;34.08;100.00;99966.84;5093229;28;20011;-72
2023/07/06 13:43:14;;;;;;;;;;;;;;;33.99;100.00;99965.41;5075437;28;19920;-72
2023/07/06 13:45:41;;;;;;;;;;;;;;;34.05;100.00;99972.53;5074591;28;19923;-71
2023/07/06 13:51:09;;;;;;;;;;;;;;;34.36;100.00;99962.34;5093641;28;20494;-72
2023/07/06 13:53:34;;;;;;;;;;;;;;;34.28;100.00;99977.53;5075212;28;20024;-73
2023/07/06 13:56:00;;;;;;;;;;;;;;;35.14;100.00;99979.53;5093061;28;19912;-72
2023/07/06 13:58:26;;;;;;;;;;;;;;;35.00;100.00;99975.22;5075025;28;19908;-73
2023/07/06 14:00:52;;;;;;;;;;;;;;;34.62;100.00;99965.13;5092984;28;20304;-72
2023/07/06 14:03:18;;;;;;;;;;;;;;;34.45;100.00;99968.25;5093422;28;19912;-73
2023/07/06 14:08:46;;;;;;;;;;;;;;;34.51;100.00;99967.50;5093300;28;19916;-71
2023/07/06 14:14:14;;;;;;;;;;;;;;;34.41;100.00;99973.13;5093189;28;19950;-71
2023/07/06 14:16:39;;;;;;;;;;;;;;;34.51;100.00;99980.72;5093042;28;19959;-71
2023/07/06 14:19:05;;;;;;;;;;;;;;;34.64;100.00;99975.50;5093048;28;19916;-72
2023/07/06 14:21:33;;;;;;;;;;;;;;;34.74;100.00;99974.13;5093479;28;19920;-71
2023/07/06 14:23:58;;;;;;;;;;;;;;;34.78;100.00;99982.47;5093050;28;19941;-71
2023/07/06 14:26:25;;;;;;;;;;;;;;;35.14;100.00;99977.69;5092912;28;20006;-71
2023/07/06 14:28:51;;;;;;;;;;;;;;;35.84;100.00;99981.59;5092935;28;19933;-72
2023/07/06 14:31:17;;;;;;;;;;;;;;;33.94;100.00;99965.94;5093244;28;19912;-70
2023/07/06 14:36:46;;;;;;;;;;;;;;;33.66;100.00;99972.22;5092849;28;19915;-72
2023/07/06 14:39:12;;;;;;;;;;;;;;;33.36;100.00;99976.00;5092572;28;19912;-71
2023/07/06 14:41:37;;;;;;;;;;;;;;;33.66;100.00;99986.22;5092483;28;19912;-71
2023/07/06 14:44:02;;;;;;;;;;;;;;;34.14;100.00;99992.50;5093008;28;19920;-72
2023/07/06 14:49:30;;;;;;;;;;;;;;;34.68;100.00;99972.28;5092653;28;20389;-71
2023/07/06 14:51:55;;;;;;;;;;;;;;;34.25;100.00;99984.00;5093055;28;19912;-72
2023/07/06 14:54:21;;;;;;;;;;;;;;;33.99;100.00;99973.31;5092154;28;20358;-72
2023/07/06 14:56:46;;;;;;;;;;;;;;;34.09;100.00;99979.84;5092440;28;19919;-71
2023/07/06 14:59:11;;;;;;;;;;;;;;;35.24;100.00;100007.19;5108195;28;19969;-72
2023/07/06 15:01:37;;;;;;;;;;;;;;;34.53;100.00;99981.31;5092476;28;19912;-72
2023/07/06 15:04:02;;;;;;;;;;;;;;;33.84;100.00;99981.28;5092173;28;19919;-70
2023/07/06 15:06:28;;;;;;;;;;;;;;;34.22;100.00;99986.22;5092449;28;19920;-71
2023/07/06 15:08:53;;;;;;;;;;;;;;;34.39;100.00;99987.56;5107803;28;19919;-69
2023/07/06 15:11:21;;;;;;;;;;;;;;;34.54;100.00;99994.38;5092110;28;19916;-70
2023/07/06 15:13:46;;;;;;;;;;;;;;;34.13;100.00;99992.69;5092560;28;19912;-70
2023/07/06 15:16:11;;;;;;;;;;;;;;;34.76;100.00;100003.81;5092512;28;19919;-70
2023/07/06 15:18:36;;;;;;;;;;;;;;;35.02;100.00;99999.66;5092614;28;19977;-70
2023/07/06 15:21:03;;;;;;;;;;;;;;;34.15;100.00;99994.09;5107747;28;19927;-69
2023/07/06 15:23:29;;;;;;;;;;;;;;;33.77;100.00;100003.38;5074168;28;19920;-70
2023/07/06 15:25:54;;;;;;;;;;;;;;;34.14;100.00;100013.63;5107851;28;19908;-70
2023/07/06 15:28:19;;;;;;;;;;;;;;;33.52;100.00;100015.31;5107774;28;19967;-70
2023/07/06 15:30:44;;;;;;;;;;;;;;;34.05;100.00;100028.78;5092374;28;19912;-69
2023/07/06 15:33:10;;;;;;;;;;;;;;;34.36;100.00;100017.81;5092179;28;19908;-69
2023/07/06 15:35:35;;;;;;;;;;;;;;;34.22;100.00;100024.03;5092589;28;20341;-69
2023/07/06 15:41:03;;;;;;;;;;;;;;;33.16;100.00;100021.44;5092041;28;19954;-70
2023/07/06 15:43:28;;;;;;;;;;;;;;;33.37;100.00;100027.75;5107585;28;20285;-70
2023/07/06 15:45:53;;;;;;;;;;;;;;;33.29;100.00;100026.03;5092309;28;19973;-68
2023/07/06 15:48:19;;;;;;;;;;;;;;;33.07;100.00;100029.66;5107528;28;20423;-69
2023/07/06 15:53:47;;;;;;;;;;;;;;;32.55;100.00;100042.97;5092069;28;19915;-69
2023/07/06 15:56:12;;;;;;;;;;;;;;;32.60;100.00;100045.88;5092173;28;19912;-67
2023/07/06 15:58:37;;;;;;;;;;;;;;;32.56;100.00;100062.22;5091912;28;19912;-68
2023/07/06 16:01:03;;;;;;;;;;;;;;;32.48;100.00;100068.41;5092048;28;20270;-68
2023/07/06 16:06:35;;;;;;;;;;;;;;;32.37;100.00;100029.31;5090142;28;19923;-69
2023/07/06 16:12:03;;;;;;;;;;;;;;;32.41;100.00;100081.44;5095221;28;19966;-69
2023/07/06 16:17:31;;;;;;;;;;;;;;;31.98;100.00;100091.88;5095675;28;19957;-69
2023/07/06 16:19:56;;;;;;;;;;;;;;;32.43;100.00;100100.53;5095351;28;19912;-70
2023/07/06 16:22:22;;;;;;;;;;;;;;;31.00;100.00;100053.22;5111081;28;20358;-69
2023/07/06 16:24:47;;;;;;;;;;;;;;;31.30;100.00;100055.00;5111188;28;19912;-69
2023/07/06 16:27:12;;;;;;;;;;;;;;;31.13;100.00;100038.53;5094806;28;20355;-69